createdAt,value
2018-08-28T00:01:24.270Z,11.73
2018-08-28T00:03:53.652Z,11.71
2018-08-28T00:06:22.627Z,11.71
2018-08-28T00:08:51.760Z,11.73
2018-08-28T00:11:20.481Z,11.71
2018-08-28T00:13:49.140Z,11.68
2018-08-28T00:16:17.791Z,11.70
2018-08-28T00:18:46.479Z,11.68
2018-08-28T00:21:15.116Z,11.64
2018-08-28T00:23:43.815Z,11.56
2018-08-28T00:26:12.483Z,11.52
2018-08-28T00:28:41.131Z,11.50
2018-08-28T00:31:09.824Z,11.47
2018-08-28T00:33:38.500Z,11.43
2018-08-28T00:36:07.202Z,11.43
2018-08-28T00:38:35.879Z,11.41
2018-08-28T00:41:04.556Z,11.41
2018-08-28T00:43:33.229Z,11.41
2018-08-28T00:46:01.878Z,11.44
2018-08-28T00:48:30.630Z,11.50
2018-08-28T00:50:59.276Z,11.50
2018-08-28T00:53:27.941Z,11.48
2018-08-28T00:55:56.588Z,11.43
2018-08-28T00:58:25.281Z,11.40
2018-08-28T01:00:53.960Z,11.35
2018-08-28T01:03:22.651Z,11.31
2018-08-28T01:05:51.316Z,11.29
2018-08-28T01:08:20.007Z,11.24
2018-08-28T01:10:48.677Z,11.26
2018-08-28T01:13:17.340Z,11.28
2018-08-28T01:15:45.987Z,11.27
2018-08-28T01:18:14.661Z,11.28
2018-08-28T01:20:43.329Z,11.29
2018-08-28T01:23:12.060Z,11.27
2018-08-28T01:25:40.723Z,11.27
2018-08-28T01:28:09.406Z,11.28
2018-08-28T01:30:38.074Z,11.19
2018-08-28T01:33:07.332Z,11.10
2018-08-28T01:35:36.100Z,11.01
2018-08-28T01:38:04.788Z,10.94
2018-08-28T01:40:33.457Z,10.86
2018-08-28T01:43:02.185Z,10.85
2018-08-28T01:45:30.924Z,10.82
2018-08-28T01:47:59.588Z,10.77
2018-08-28T01:50:28.326Z,10.78
2018-08-28T01:52:56.974Z,10.79
2018-08-28T01:55:25.636Z,10.80
2018-08-28T01:57:54.283Z,10.79
2018-08-28T02:00:22.978Z,10.74
2018-08-28T02:02:51.687Z,10.68
2018-08-28T02:05:20.373Z,10.65
2018-08-28T02:07:49.041Z,10.67
2018-08-28T02:10:17.716Z,10.69
2018-08-28T02:12:46.358Z,10.71
2018-08-28T02:15:15.032Z,10.74
2018-08-28T02:17:43.708Z,10.77
2018-08-28T02:20:12.375Z,10.79
2018-08-28T02:22:41.060Z,10.74
2018-08-28T02:25:09.732Z,10.63
2018-08-28T02:27:38.384Z,10.54
2018-08-28T02:30:07.103Z,10.49
2018-08-28T02:32:35.747Z,10.49
2018-08-28T02:35:04.432Z,10.43
2018-08-28T02:37:33.066Z,10.28
2018-08-28T02:40:01.745Z,10.19
2018-08-28T02:42:30.420Z,10.12
2018-08-28T02:44:59.119Z,10.10
2018-08-28T02:47:27.752Z,10.07
2018-08-28T02:49:56.444Z,10.08
2018-08-28T02:52:25.201Z,10.12
2018-08-28T02:54:53.892Z,10.17
2018-08-28T02:57:22.562Z,10.20
2018-08-28T02:59:51.281Z,10.22
2018-08-28T03:02:19.939Z,10.23
2018-08-28T03:04:48.615Z,10.25
2018-08-28T03:07:17.247Z,10.27
2018-08-28T03:09:45.907Z,10.29
2018-08-28T03:12:14.576Z,10.36
2018-08-28T03:14:43.237Z,10.38
2018-08-28T03:17:11.884Z,10.43
2018-08-28T03:19:40.546Z,10.36
2018-08-28T03:22:09.209Z,10.30
2018-08-28T03:24:37.921Z,10.24
2018-08-28T03:27:06.551Z,10.17
2018-08-28T03:29:35.213Z,10.06
2018-08-28T03:32:03.899Z,9.98
2018-08-28T03:34:32.564Z,9.90
2018-08-28T03:37:01.217Z,9.88
2018-08-28T03:39:29.862Z,9.87
2018-08-28T03:41:58.540Z,9.85
2018-08-28T03:44:27.181Z,9.88
2018-08-28T03:46:55.855Z,9.83
2018-08-28T03:49:24.483Z,9.77
2018-08-28T03:51:53.151Z,9.70
2018-08-28T03:54:21.852Z,9.68
2018-08-28T03:56:50.513Z,9.74
2018-08-28T03:59:19.154Z,9.80
2018-08-28T04:01:47.820Z,9.89
2018-08-28T04:04:16.481Z,9.99
2018-08-28T04:06:45.160Z,10.07
2018-08-28T04:09:13.820Z,10.15
2018-08-28T04:11:42.500Z,10.24
2018-08-28T04:14:12.253Z,10.33
2018-08-28T04:16:40.923Z,10.36
2018-08-28T04:19:09.571Z,10.23
2018-08-28T04:21:38.256Z,10.09
2018-08-28T04:24:06.921Z,9.98
2018-08-28T04:26:35.605Z,9.91
2018-08-28T04:29:04.251Z,9.90
2018-08-28T04:31:32.911Z,9.86
2018-08-28T04:34:01.549Z,9.85
2018-08-28T04:36:30.217Z,9.88
2018-08-28T04:38:58.856Z,9.89
2018-08-28T04:41:27.521Z,9.88
2018-08-28T04:43:56.172Z,9.89
2018-08-28T04:46:24.839Z,9.89
2018-08-28T04:48:53.487Z,9.87
2018-08-28T04:51:22.168Z,9.81
2018-08-28T04:53:50.794Z,9.75
2018-08-28T04:56:19.461Z,9.72
2018-08-28T04:58:48.127Z,9.76
2018-08-28T05:01:16.801Z,9.77
2018-08-28T05:03:45.465Z,9.80
2018-08-28T05:06:14.157Z,9.91
2018-08-28T05:08:42.796Z,10.02
2018-08-28T05:11:11.466Z,10.14
2018-08-28T05:13:40.097Z,10.27
2018-08-28T05:16:08.772Z,10.40
2018-08-28T05:18:37.417Z,10.50
2018-08-28T05:21:06.226Z,10.63
2018-08-28T05:23:34.961Z,10.76
2018-08-28T05:26:03.660Z,10.86
2018-08-28T05:28:32.367Z,10.95
2018-08-28T05:31:01.105Z,11.04
2018-08-28T05:33:29.760Z,11.16
2018-08-28T05:35:58.421Z,11.26
2018-08-28T05:38:27.081Z,11.32
2018-08-28T05:40:55.752Z,11.38
2018-08-28T05:43:24.392Z,11.48
2018-08-28T05:45:53.040Z,11.58
2018-08-28T05:48:21.683Z,11.71
2018-08-28T05:50:50.315Z,11.87
2018-08-28T05:53:18.982Z,11.97
2018-08-28T05:55:47.693Z,12.12
2018-08-28T05:58:16.327Z,12.23
2018-08-28T06:00:44.974Z,12.34
2018-08-28T06:03:13.720Z,12.46
2018-08-28T06:05:42.369Z,12.56
2018-08-28T06:08:11.049Z,12.65
2018-08-28T06:10:39.781Z,12.76
2018-08-28T06:13:08.457Z,12.86
2018-08-28T06:15:37.090Z,12.91
2018-08-28T06:18:05.767Z,12.93
2018-08-28T06:20:34.411Z,12.98
2018-08-28T06:23:03.151Z,13.03
2018-08-28T06:25:31.810Z,13.05
2018-08-28T06:28:00.455Z,13.03
2018-08-28T06:30:29.175Z,13.07
2018-08-28T06:32:57.852Z,13.14
2018-08-28T06:35:26.487Z,13.21
2018-08-28T06:37:55.199Z,13.25
2018-08-28T06:40:23.895Z,13.29
2018-08-28T06:42:52.846Z,13.36
2018-08-28T06:45:21.481Z,13.42
2018-08-28T06:47:50.148Z,13.49
2018-08-28T06:50:18.782Z,13.57
2018-08-28T06:52:47.470Z,13.61
2018-08-28T06:55:16.123Z,13.63
2018-08-28T06:57:44.796Z,13.67
2018-08-28T07:00:13.493Z,13.77
2018-08-28T07:02:42.172Z,13.85
2018-08-28T07:05:10.886Z,13.90
2018-08-28T07:07:39.643Z,13.95
2018-08-28T07:10:08.339Z,14.05
2018-08-28T07:12:37.071Z,14.13
2018-08-28T07:15:05.713Z,14.35
2018-08-28T07:17:34.388Z,14.43
2018-08-28T07:20:03.114Z,14.48
2018-08-28T07:22:31.856Z,14.56
2018-08-28T07:25:00.497Z,14.64
2018-08-28T07:27:29.191Z,14.70
2018-08-28T07:29:57.851Z,14.77
2018-08-28T07:32:26.519Z,14.99
2018-08-28T07:34:55.167Z,15.10
2018-08-28T07:37:23.865Z,15.17
2018-08-28T07:39:52.583Z,15.28
2018-08-28T07:42:21.236Z,15.36
2018-08-28T07:44:49.889Z,15.48
2018-08-28T07:47:18.564Z,15.65
2018-08-28T07:49:47.228Z,15.81
2018-08-28T07:52:15.886Z,16.01
2018-08-28T07:54:44.615Z,16.19
2018-08-28T07:57:13.338Z,16.35
2018-08-28T07:59:42.002Z,16.39
2018-08-28T08:02:10.811Z,16.47
2018-08-28T08:04:39.539Z,16.54
2018-08-28T08:07:08.349Z,16.62
2018-08-28T08:09:37.046Z,16.68
2018-08-28T08:12:05.707Z,16.78
2018-08-28T08:14:34.375Z,16.83
2018-08-28T08:17:03.133Z,16.87
2018-08-28T08:19:31.828Z,17.03
2018-08-28T08:22:00.579Z,17.25
2018-08-28T08:24:29.345Z,17.42
2018-08-28T08:26:57.987Z,17.57
2018-08-28T08:29:26.680Z,17.67
2018-08-28T08:31:55.348Z,17.70
2018-08-28T08:34:24.012Z,17.66
2018-08-28T08:36:52.680Z,17.66
2018-08-28T08:39:21.335Z,17.60
2018-08-28T08:41:50.067Z,17.63
2018-08-28T08:44:18.721Z,17.76
2018-08-28T08:46:47.540Z,18.04
2018-08-28T08:49:16.214Z,18.30
2018-08-28T08:51:44.867Z,18.45
2018-08-28T08:54:13.593Z,18.15
2018-08-28T08:56:42.235Z,17.99
2018-08-28T08:59:10.913Z,17.97
2018-08-28T09:01:39.666Z,18.06
2018-08-28T09:04:08.437Z,18.11
2018-08-28T09:06:37.084Z,18.15
2018-08-28T09:09:06.604Z,18.23
2018-08-28T09:11:35.331Z,18.46
2018-08-28T09:14:04.041Z,18.75
2018-08-28T09:16:32.711Z,18.96
2018-08-28T09:19:01.388Z,18.98
2018-08-28T09:21:30.036Z,18.98
2018-08-28T09:23:58.708Z,19.04
2018-08-28T09:26:27.343Z,18.98
2018-08-28T09:28:56.037Z,18.98
2018-08-28T09:31:24.700Z,19.09
2018-08-28T09:33:53.417Z,19.24
2018-08-28T09:36:22.076Z,19.58
2018-08-28T09:38:50.790Z,19.79
2018-08-28T09:41:19.486Z,19.93
2018-08-28T09:43:48.189Z,20.29
2018-08-28T09:46:16.863Z,20.57
2018-08-28T09:48:45.559Z,20.87
2018-08-28T09:51:14.252Z,20.90
2018-08-28T09:53:42.974Z,20.84
2018-08-28T09:56:11.629Z,20.75
2018-08-28T09:58:40.557Z,20.79
2018-08-28T10:01:14.514Z,20.67
2018-08-28T10:03:43.184Z,20.58
2018-08-28T10:06:11.862Z,20.59
2018-08-28T10:08:40.552Z,20.00
2018-08-28T10:11:09.189Z,19.47
2018-08-28T10:13:37.847Z,19.24
2018-08-28T10:16:06.528Z,19.09
2018-08-28T10:18:35.196Z,19.11
2018-08-28T10:21:03.876Z,19.55
2018-08-28T10:23:32.542Z,20.05
2018-08-28T10:26:01.197Z,20.43
2018-08-28T10:28:29.827Z,20.53
2018-08-28T10:30:58.492Z,20.59
2018-08-28T10:33:27.127Z,20.54
2018-08-28T10:35:55.777Z,20.61
2018-08-28T10:38:24.450Z,20.93
2018-08-28T10:40:53.107Z,21.14
2018-08-28T10:43:21.730Z,21.11
2018-08-28T10:45:50.929Z,21.29
2018-08-28T10:48:19.568Z,21.28
2018-08-28T10:50:48.226Z,21.60
2018-08-28T10:53:16.861Z,21.75
2018-08-28T10:55:45.505Z,21.95
2018-08-28T10:58:14.127Z,21.94
2018-08-28T11:00:42.781Z,21.29
2018-08-28T11:03:11.404Z,20.99
2018-08-28T11:05:40.430Z,20.82
2018-08-28T11:08:09.257Z,21.04
2018-08-28T11:10:37.913Z,21.18
2018-08-28T11:13:06.604Z,21.26
2018-08-28T11:15:35.249Z,21.33
2018-08-28T11:18:03.889Z,21.53
2018-08-28T11:20:32.564Z,21.76
2018-08-28T11:23:01.339Z,21.81
2018-08-28T11:25:30.008Z,21.91
2018-08-28T11:27:58.648Z,22.11
2018-08-28T11:30:27.363Z,22.41
2018-08-28T11:32:56.304Z,22.53
2018-08-28T11:35:25.380Z,22.61
2018-08-28T11:37:54.089Z,22.81
2018-08-28T11:40:22.794Z,22.58
2018-08-28T11:42:51.691Z,22.05
2018-08-28T11:45:20.461Z,21.56
2018-08-28T11:47:49.100Z,21.05
2018-08-28T11:50:17.759Z,20.65
2018-08-28T11:52:46.427Z,20.29
2018-08-28T11:55:15.090Z,19.95
2018-08-28T11:57:43.746Z,19.64
2018-08-28T12:00:12.525Z,19.43
2018-08-28T12:02:41.205Z,19.37
2018-08-28T12:05:10.001Z,19.35
2018-08-28T12:07:38.698Z,19.39
2018-08-28T12:10:08.604Z,19.44
2018-08-28T12:12:37.385Z,19.50
2018-08-28T12:15:06.227Z,19.60
2018-08-28T12:17:34.858Z,19.70
2018-08-28T12:20:03.574Z,19.85
2018-08-28T12:22:32.309Z,20.11
2018-08-28T12:25:01.790Z,20.33
2018-08-28T12:27:30.483Z,20.56
2018-08-28T12:29:59.143Z,20.79
2018-08-28T12:32:27.799Z,20.94
2018-08-28T12:34:56.452Z,20.88
2018-08-28T12:37:25.133Z,20.73
2018-08-28T12:39:53.788Z,20.69
2018-08-28T12:42:22.460Z,20.71
2018-08-28T12:44:51.099Z,21.06
2018-08-28T12:47:19.791Z,21.12
2018-08-28T12:49:48.448Z,21.08
2018-08-28T12:52:17.131Z,20.98
2018-08-28T12:54:45.829Z,20.78
2018-08-28T12:57:14.496Z,20.64
2018-08-28T12:59:43.132Z,20.50
2018-08-28T13:02:11.804Z,20.48
2018-08-28T13:04:40.483Z,20.47
2018-08-28T13:07:09.328Z,20.54
2018-08-28T13:09:37.974Z,20.47
2018-08-28T13:12:06.668Z,20.56
2018-08-28T13:14:35.363Z,20.66
2018-08-28T13:17:04.309Z,20.68
2018-08-28T13:19:32.978Z,20.69
2018-08-28T13:22:01.665Z,20.61
2018-08-28T13:24:30.352Z,20.47
2018-08-28T13:26:59.018Z,20.25
2018-08-28T13:29:27.653Z,19.95
2018-08-28T13:31:56.304Z,19.89
2018-08-28T13:34:24.950Z,19.95
2018-08-28T13:36:53.603Z,20.23
2018-08-28T13:39:22.261Z,20.76
2018-08-28T13:41:50.936Z,21.22
2018-08-28T13:44:19.589Z,21.60
2018-08-28T13:46:48.277Z,21.71
2018-08-28T13:49:16.915Z,21.90
2018-08-28T13:51:45.636Z,22.05
2018-08-28T13:54:14.399Z,22.11
2018-08-28T13:56:43.094Z,22.12
2018-08-28T13:59:11.838Z,22.21
2018-08-28T14:01:40.493Z,22.32
2018-08-28T14:04:09.143Z,22.37
2018-08-28T14:06:37.807Z,22.27
2018-08-28T14:09:06.731Z,22.32
2018-08-28T14:11:35.468Z,22.43
2018-08-28T14:14:04.191Z,22.33
2018-08-28T14:16:32.843Z,22.31
2018-08-28T14:19:01.552Z,22.41
2018-08-28T14:21:30.232Z,22.37
2018-08-28T14:23:58.902Z,22.34
2018-08-28T14:26:27.587Z,22.42
2018-08-28T14:28:56.331Z,22.13
2018-08-28T14:31:24.955Z,21.97
2018-08-28T14:33:53.611Z,21.74
2018-08-28T14:36:22.410Z,21.48
2018-08-28T14:38:51.075Z,21.49
2018-08-28T14:41:19.724Z,21.55
2018-08-28T14:43:48.404Z,21.75
2018-08-28T14:46:17.061Z,21.79
2018-08-28T14:48:45.735Z,21.75
2018-08-28T14:51:14.387Z,21.83
2018-08-28T14:53:43.067Z,21.88
2018-08-28T14:56:11.835Z,21.86
2018-08-28T14:58:40.495Z,21.99
2018-08-28T15:01:09.147Z,22.06
2018-08-28T15:03:37.802Z,22.13
2018-08-28T15:06:06.513Z,22.21
2018-08-28T15:08:35.185Z,22.27
2018-08-28T15:11:03.851Z,22.26
2018-08-28T15:13:32.582Z,21.99
2018-08-28T15:16:01.230Z,21.60
2018-08-28T15:18:29.887Z,21.18
2018-08-28T15:20:58.585Z,20.88
2018-08-28T15:23:27.236Z,20.69
2018-08-28T15:25:55.871Z,20.54
2018-08-28T15:28:24.937Z,20.40
2018-08-28T15:30:53.759Z,20.31
2018-08-28T15:33:22.425Z,20.26
2018-08-28T15:35:51.075Z,20.21
2018-08-28T15:38:19.730Z,20.19
2018-08-28T15:40:48.376Z,20.16
2018-08-28T15:43:17.179Z,20.14
2018-08-28T15:45:45.855Z,20.14
2018-08-28T15:48:14.596Z,20.12
2018-08-28T15:50:43.329Z,20.10
2018-08-28T15:53:11.995Z,20.10
2018-08-28T15:55:40.698Z,20.09
2018-08-28T15:58:09.383Z,20.08
2018-08-28T16:00:38.041Z,20.09
2018-08-28T16:03:06.727Z,20.08
2018-08-28T16:05:35.420Z,20.11
2018-08-28T16:08:04.086Z,20.08
2018-08-28T16:10:32.723Z,20.13
2018-08-28T16:13:01.376Z,20.15
2018-08-28T16:15:30.104Z,20.20
2018-08-28T16:17:58.863Z,20.24
2018-08-28T16:20:27.574Z,20.30
2018-08-28T16:22:58.748Z,20.32
2018-08-28T16:25:27.568Z,20.34
2018-08-28T16:27:56.376Z,20.34
2018-08-28T16:30:25.802Z,20.32
2018-08-28T16:32:54.429Z,20.43
2018-08-28T16:35:23.180Z,20.55
2018-08-28T16:37:51.807Z,20.65
2018-08-28T16:40:20.487Z,20.73
2018-08-28T16:42:49.182Z,20.80
2018-08-28T16:45:17.810Z,20.82
2018-08-28T16:47:46.475Z,20.76
2018-08-28T16:50:15.185Z,20.66
2018-08-28T16:52:43.794Z,20.54
2018-08-28T16:55:12.447Z,20.23
2018-08-28T16:57:41.080Z,19.95
2018-08-28T17:00:09.743Z,19.72
2018-08-28T17:02:38.368Z,19.46
2018-08-28T17:05:07.029Z,19.27
2018-08-28T17:07:35.675Z,19.11
2018-08-28T17:10:04.339Z,18.96
2018-08-28T17:12:32.985Z,18.83
2018-08-28T17:15:01.656Z,18.76
2018-08-28T17:17:30.337Z,18.69
2018-08-28T17:19:59.007Z,18.61
2018-08-28T17:22:27.678Z,18.52
2018-08-28T17:24:56.343Z,18.45
2018-08-28T17:27:24.974Z,18.39
2018-08-28T17:29:53.635Z,18.31
2018-08-28T17:32:22.260Z,18.24
2018-08-28T17:34:50.910Z,18.17
2018-08-28T17:37:19.531Z,18.10
2018-08-28T17:39:48.213Z,18.02
2018-08-28T17:42:16.866Z,17.94
2018-08-28T17:44:45.537Z,17.85
2018-08-28T17:47:14.201Z,17.71
2018-08-28T17:49:42.847Z,17.56
2018-08-28T17:52:11.488Z,17.40
2018-08-28T17:54:40.147Z,17.25
2018-08-28T17:57:08.785Z,17.09
2018-08-28T17:59:37.444Z,16.88
2018-08-28T18:02:06.288Z,16.75
2018-08-28T18:04:34.986Z,16.58
2018-08-28T18:07:03.629Z,16.38
2018-08-28T18:09:32.272Z,16.22
2018-08-28T18:12:00.918Z,16.07
2018-08-28T18:14:29.589Z,15.95
2018-08-28T18:16:58.230Z,15.85
2018-08-28T18:19:26.908Z,15.75
2018-08-28T18:21:55.583Z,15.55
2018-08-28T18:24:24.248Z,15.41
2018-08-28T18:26:52.894Z,15.27
2018-08-28T18:29:21.585Z,15.20
2018-08-28T18:31:50.232Z,15.16
2018-08-28T18:34:18.905Z,15.11
2018-08-28T18:36:47.544Z,14.98
2018-08-28T18:39:16.213Z,14.88
2018-08-28T18:41:44.896Z,14.79
2018-08-28T18:44:13.621Z,14.69
2018-08-28T18:46:42.285Z,14.62
2018-08-28T18:49:10.948Z,14.56
2018-08-28T18:51:39.619Z,14.48
2018-08-28T18:54:08.284Z,14.42
2018-08-28T18:56:36.946Z,14.35
2018-08-28T18:59:05.628Z,14.21
2018-08-28T19:01:34.287Z,14.09
2018-08-28T19:04:03.504Z,14.04
2018-08-28T19:06:32.158Z,13.93
2018-08-28T19:09:00.821Z,13.86
2018-08-28T19:11:29.491Z,13.79
2018-08-28T19:13:58.125Z,13.75
2018-08-28T19:16:26.776Z,13.72
2018-08-28T19:18:55.436Z,13.70
2018-08-28T19:21:24.085Z,13.63
2018-08-28T19:23:52.758Z,13.59
2018-08-28T19:26:21.430Z,13.55
2018-08-28T19:28:50.063Z,13.49
2018-08-28T19:31:18.735Z,13.43
2018-08-28T19:33:47.374Z,13.35
2018-08-28T19:36:16.081Z,13.26
2018-08-28T19:38:44.749Z,13.20
2018-08-28T19:41:13.425Z,13.17
2018-08-28T19:43:42.065Z,13.13
2018-08-28T19:46:10.733Z,13.10
2018-08-28T19:48:39.404Z,13.07
2018-08-28T19:51:08.083Z,13.04
2018-08-28T19:53:36.785Z,12.99
2018-08-28T19:56:05.633Z,12.90
2018-08-28T19:58:34.332Z,12.83
2018-08-28T20:01:02.987Z,12.74
2018-08-28T20:03:31.653Z,12.67
2018-08-28T20:06:00.304Z,12.62
2018-08-28T20:08:28.943Z,12.57
2018-08-28T20:10:57.614Z,12.54
2018-08-28T20:13:26.277Z,12.55
2018-08-28T20:15:54.952Z,12.57
2018-08-28T20:18:23.594Z,12.55
2018-08-28T20:20:52.355Z,12.51
2018-08-28T20:23:20.981Z,12.46
2018-08-28T20:25:49.629Z,12.41
2018-08-28T20:28:18.260Z,12.38
2018-08-28T20:30:46.911Z,12.39
2018-08-28T20:33:15.539Z,12.37
2018-08-28T20:35:44.197Z,12.36
2018-08-28T20:38:13.181Z,12.36
2018-08-28T20:40:41.838Z,12.37
2018-08-28T20:43:10.495Z,12.39
2018-08-28T20:45:39.129Z,12.44
2018-08-28T20:48:07.815Z,12.41
2018-08-28T20:50:36.454Z,12.35
2018-08-28T20:53:05.125Z,12.28
2018-08-28T20:55:33.751Z,12.24
2018-08-28T20:58:02.470Z,12.17
2018-08-28T21:00:35.525Z,12.14
2018-08-28T21:03:04.876Z,12.10
2018-08-28T21:05:33.503Z,12.06
2018-08-28T21:08:02.475Z,12.00
2018-08-28T21:10:31.592Z,11.94
2018-08-28T21:13:00.508Z,11.87
2018-08-28T21:15:29.120Z,11.81
2018-08-28T21:17:57.775Z,11.74
2018-08-28T21:20:26.421Z,11.65
2018-08-28T21:22:55.194Z,11.60
2018-08-28T21:25:23.809Z,11.53
2018-08-28T21:27:52.486Z,11.53
2018-08-28T21:30:21.158Z,11.56
2018-08-28T21:32:49.853Z,11.55
2018-08-28T21:35:18.511Z,11.52
2018-08-28T21:37:47.193Z,11.47
2018-08-28T21:40:15.841Z,11.35
2018-08-28T21:42:44.518Z,11.29
2018-08-28T21:45:13.164Z,11.22
2018-08-28T21:47:41.827Z,11.19
2018-08-28T21:50:10.534Z,11.18
2018-08-28T21:52:39.216Z,11.21
2018-08-28T21:55:07.894Z,11.19
2018-08-28T21:57:36.555Z,11.16
2018-08-28T22:00:05.780Z,11.16
2018-08-28T22:02:34.471Z,11.09
2018-08-28T22:05:03.153Z,10.96
2018-08-28T22:07:37.043Z,10.86
2018-08-28T22:10:05.712Z,10.81
2018-08-28T22:12:34.450Z,10.79
2018-08-28T22:15:03.082Z,10.78
2018-08-28T22:17:31.744Z,10.80
2018-08-28T22:20:00.499Z,10.83
2018-08-28T22:22:29.186Z,10.84
2018-08-28T22:24:57.842Z,10.81
2018-08-28T22:27:26.611Z,10.78
2018-08-28T22:29:55.276Z,10.68
2018-08-28T22:32:23.962Z,10.61
2018-08-28T22:34:52.619Z,10.54
2018-08-28T22:37:21.286Z,10.48
2018-08-28T22:39:49.933Z,10.45
2018-08-28T22:42:18.603Z,10.49
2018-08-28T22:44:47.255Z,10.53
2018-08-28T22:47:15.948Z,10.52
2018-08-28T22:49:44.602Z,10.50
2018-08-28T22:52:13.274Z,10.47
2018-08-28T22:54:41.920Z,10.44
2018-08-28T22:57:10.599Z,10.41
2018-08-28T22:59:39.274Z,10.40
2018-08-28T23:02:07.966Z,10.37
2018-08-28T23:04:36.655Z,10.32
2018-08-28T23:07:05.420Z,10.28
2018-08-28T23:09:34.104Z,10.21
2018-08-28T23:12:02.821Z,10.21
2018-08-28T23:14:31.498Z,10.21
2018-08-28T23:17:00.137Z,10.21
2018-08-28T23:19:28.821Z,10.17
2018-08-28T23:21:57.488Z,10.13
2018-08-28T23:24:26.171Z,10.10
2018-08-28T23:26:54.810Z,10.10
2018-08-28T23:29:23.477Z,10.12
2018-08-28T23:31:52.121Z,10.00
2018-08-28T23:34:20.776Z,9.90
2018-08-28T23:36:49.422Z,9.89
2018-08-28T23:39:18.104Z,9.90
2018-08-28T23:41:46.745Z,9.92
2018-08-28T23:44:15.403Z,9.91
2018-08-28T23:46:44.042Z,9.92
2018-08-28T23:49:12.707Z,9.89
2018-08-28T23:51:41.352Z,9.85
2018-08-28T23:54:09.995Z,9.80
2018-08-28T23:56:38.630Z,9.74
2018-08-28T23:59:07.302Z,9.66
